sensor_id;sensor_type;location;lat;lon;timestamp;temperature;humidity
4960;DHT22;2495;48.200;11.532;2022-08-25T00:02:42;21.80;68.30
4960;DHT22;2495;48.200;11.532;2022-08-25T00:07:43;21.70;68.00
4960;DHT22;2495;48.200;11.532;2022-08-25T00:12:48;21.70;69.30
4960;DHT22;2495;48.200;11.532;2022-08-25T00:17:49;21.80;68.50
4960;DHT22;2495;48.200;11.532;2022-08-25T00:22:50;21.70;68.40
4960;DHT22;2495;48.200;11.532;2022-08-25T00:27:52;21.60;68.50
4960;DHT22;2495;48.200;11.532;2022-08-25T00:32:53;21.50;68.40
4960;DHT22;2495;48.200;11.532;2022-08-25T00:37:55;21.40;69.00
4960;DHT22;2495;48.200;11.532;2022-08-25T00:42:56;21.40;69.30
4960;DHT22;2495;48.200;11.532;2022-08-25T00:47:58;21.30;69.60
4960;DHT22;2495;48.200;11.532;2022-08-25T00:53:00;21.20;69.70
4960;DHT22;2495;48.200;11.532;2022-08-25T00:58:28;21.20;71.20
4960;DHT22;2495;48.200;11.532;2022-08-25T01:03:29;21.40;70.90
4960;DHT22;2495;48.200;11.532;2022-08-25T01:08:31;21.30;70.00
4960;DHT22;2495;48.200;11.532;2022-08-25T01:13:42;21.20;72.00
4960;DHT22;2495;48.200;11.532;2022-08-25T01:18:46;21.30;71.30
4960;DHT22;2495;48.200;11.532;2022-08-25T01:23:47;21.20;71.20
4960;DHT22;2495;48.200;11.532;2022-08-25T01:28:48;21.10;71.10
4960;DHT22;2495;48.200;11.532;2022-08-25T01:34:07;21.00;72.70
4960;DHT22;2495;48.200;11.532;2022-08-25T01:39:09;21.30;72.80
4960;DHT22;2495;48.200;11.532;2022-08-25T01:44:10;21.30;71.80
4960;DHT22;2495;48.200;11.532;2022-08-25T01:49:11;21.20;71.50
4960;DHT22;2495;48.200;11.532;2022-08-25T01:54:12;21.10;72.60
4960;DHT22;2495;48.200;11.532;2022-08-25T01:59:14;21.20;72.00
4960;DHT22;2495;48.200;11.532;2022-08-25T02:04:15;21.00;71.90
4960;DHT22;2495;48.200;11.532;2022-08-25T02:09:16;20.90;73.20
4960;DHT22;2495;48.200;11.532;2022-08-25T02:14:17;21.10;73.60
4960;DHT22;2495;48.200;11.532;2022-08-25T02:19:19;21.20;74.00
4960;DHT22;2495;48.200;11.532;2022-08-25T02:24:20;21.20;72.50
4960;DHT22;2495;48.200;11.532;2022-08-25T02:29:21;21.00;72.50
4960;DHT22;2495;48.200;11.532;2022-08-25T02:34:22;20.80;72.70
4960;DHT22;2495;48.200;11.532;2022-08-25T02:39:24;20.70;72.70
4960;DHT22;2495;48.200;11.532;2022-08-25T02:44:25;20.60;72.90
4960;DHT22;2495;48.200;11.532;2022-08-25T02:49:26;20.50;73.20
4960;DHT22;2495;48.200;11.532;2022-08-25T02:54:27;20.50;74.30
4960;DHT22;2495;48.200;11.532;2022-08-25T02:59:31;20.60;73.60
4960;DHT22;2495;48.200;11.532;2022-08-25T03:04:34;20.50;73.60
4960;DHT22;2495;48.200;11.532;2022-08-25T03:09:35;20.50;73.60
4960;DHT22;2495;48.200;11.532;2022-08-25T03:14:37;20.50;75.50
4960;DHT22;2495;48.200;11.532;2022-08-25T03:19:38;20.70;75.60
4960;DHT22;2495;48.200;11.532;2022-08-25T03:24:39;20.70;74.50
4960;DHT22;2495;48.200;11.532;2022-08-25T03:29:40;20.60;74.30
4960;DHT22;2495;48.200;11.532;2022-08-25T03:34:41;20.50;74.40
4960;DHT22;2495;48.200;11.532;2022-08-25T03:39:43;20.30;74.50
4960;DHT22;2495;48.200;11.532;2022-08-25T03:44:44;20.20;74.80
4960;DHT22;2495;48.200;11.532;2022-08-25T03:49:48;20.10;74.90
4960;DHT22;2495;48.200;11.532;2022-08-25T03:55:10;20.00;75.20
4960;DHT22;2495;48.200;11.532;2022-08-25T04:00:11;20.00;75.20
4960;DHT22;2495;48.200;11.532;2022-08-25T04:05:12;19.90;75.60
4960;DHT22;2495;48.200;11.532;2022-08-25T04:10:14;19.90;75.80
4960;DHT22;2495;48.200;11.532;2022-08-25T04:29:23;19.80;76.50
4960;DHT22;2495;48.200;11.532;2022-08-25T04:47:37;19.90;76.80
4960;DHT22;2495;48.200;11.532;2022-08-25T05:59:51;21.30;76.50
4960;DHT22;2495;48.200;11.532;2022-08-25T06:06:03;21.50;75.40
4960;DHT22;2495;48.200;11.532;2022-08-25T06:11:06;21.90;75.60
4960;DHT22;2495;48.200;11.532;2022-08-25T06:23:48;22.30;74.60
4960;DHT22;2495;48.200;11.532;2022-08-25T06:54:31;22.90;73.20
4960;DHT22;2495;48.200;11.532;2022-08-25T06:59:36;23.10;73.60
4960;DHT22;2495;48.200;11.532;2022-08-25T07:04:40;23.20;72.50
4960;DHT22;2495;48.200;11.532;2022-08-25T07:09:45;23.40;71.40
4960;DHT22;2495;48.200;11.532;2022-08-25T07:14:55;23.60;70.90
4960;DHT22;2495;48.200;11.532;2022-08-25T07:20:05;23.50;71.30
4960;DHT22;2495;48.200;11.532;2022-08-25T07:25:07;23.70;70.80
4960;DHT22;2495;48.200;11.532;2022-08-25T07:30:09;23.80;70.30
4960;DHT22;2495;48.200;11.532;2022-08-25T08:59:12;30.70;51.40
4960;DHT22;2495;48.200;11.532;2022-08-25T09:04:45;30.40;52.00
4960;DHT22;2495;48.200;11.532;2022-08-25T09:09:45;29.70;53.00
4960;DHT22;2495;48.200;11.532;2022-08-25T09:20:49;30.40;51.30
4960;DHT22;2495;48.200;11.532;2022-08-25T09:36:35;35.80;44.20
4960;DHT22;2495;48.200;11.532;2022-08-25T09:41:52;36.30;42.90
4960;DHT22;2495;48.200;11.532;2022-08-25T09:46:57;36.60;42.70
4960;DHT22;2495;48.200;11.532;2022-08-25T09:51:57;36.80;42.90
4960;DHT22;2495;48.200;11.532;2022-08-25T09:56:58;36.90;42.30
4960;DHT22;2495;48.200;11.532;2022-08-25T10:02:00;36.80;41.40
4960;DHT22;2495;48.200;11.532;2022-08-25T10:07:03;37.20;40.50
4960;DHT22;2495;48.200;11.532;2022-08-25T10:12:13;38.00;39.50
4960;DHT22;2495;48.200;11.532;2022-08-25T10:17:15;38.20;39.00
4960;DHT22;2495;48.200;11.532;2022-08-25T10:22:24;36.90;40.00
4960;DHT22;2495;48.200;11.532;2022-08-25T10:27:36;35.30;41.90
4960;DHT22;2495;48.200;11.532;2022-08-25T10:48:34;32.20;46.10
4960;DHT22;2495;48.200;11.532;2022-08-25T10:53:48;31.60;47.30
4960;DHT22;2495;48.200;11.532;2022-08-25T11:09:39;34.30;44.70
4960;DHT22;2495;48.200;11.532;2022-08-25T11:14:40;34.70;43.50
4960;DHT22;2495;48.200;11.532;2022-08-25T11:19:42;34.70;43.10
4960;DHT22;2495;48.200;11.532;2022-08-25T11:30:12;34.70;43.40
4960;DHT22;2495;48.200;11.532;2022-08-25T11:35:13;34.30;43.90
4960;DHT22;2495;48.200;11.532;2022-08-25T11:40:46;34.20;43.80
4960;DHT22;2495;48.200;11.532;2022-08-25T11:46:06;33.90;44.60
4960;DHT22;2495;48.200;11.532;2022-08-25T11:51:10;33.60;44.70
4960;DHT22;2495;48.200;11.532;2022-08-25T11:56:31;33.40;44.40
4960;DHT22;2495;48.200;11.532;2022-08-25T12:12:27;33.10;45.40
4960;DHT22;2495;48.200;11.532;2022-08-25T12:17:42;33.10;45.20
4960;DHT22;2495;48.200;11.532;2022-08-25T12:22:53;32.50;45.50
4960;DHT22;2495;48.200;11.532;2022-08-25T12:28:34;32.50;46.00
4960;DHT22;2495;48.200;11.532;2022-08-25T12:33:17;32.60;46.40
4960;DHT22;2495;48.200;11.532;2022-08-25T12:39:06;32.70;46.00
4960;DHT22;2495;48.200;11.532;2022-08-25T12:43:36;32.40;45.80
4960;DHT22;2495;48.200;11.532;2022-08-25T12:48:40;32.50;45.30
4960;DHT22;2495;48.200;11.532;2022-08-25T12:54:00;32.90;45.20
4960;DHT22;2495;48.200;11.532;2022-08-25T12:59:22;32.60;45.00
4960;DHT22;2495;48.200;11.532;2022-08-25T13:15:39;32.20;45.90
4960;DHT22;2495;48.200;11.532;2022-08-25T13:20:39;32.10;46.10
4960;DHT22;2495;48.200;11.532;2022-08-25T13:25:45;32.00;45.70
4960;DHT22;2495;48.200;11.532;2022-08-25T13:30:42;31.80;46.20
4960;DHT22;2495;48.200;11.532;2022-08-25T13:35:50;31.50;46.60
4960;DHT22;2495;48.200;11.532;2022-08-25T13:41:00;31.50;47.00
4960;DHT22;2495;48.200;11.532;2022-08-25T13:45:58;31.90;46.40
4960;DHT22;2495;48.200;11.532;2022-08-25T13:51:23;32.10;45.70
4960;DHT22;2495;48.200;11.532;2022-08-25T13:56:30;32.00;46.20
4960;DHT22;2495;48.200;11.532;2022-08-25T14:01:42;31.80;45.40
4960;DHT22;2495;48.200;11.532;2022-08-25T14:06:36;31.80;46.30
4960;DHT22;2495;48.200;11.532;2022-08-25T14:11:45;31.80;46.30
4960;DHT22;2495;48.200;11.532;2022-08-25T14:16:50;31.60;46.00
4960;DHT22;2495;48.200;11.532;2022-08-25T14:21:50;31.60;45.40
4960;DHT22;2495;48.200;11.532;2022-08-25T14:26:51;31.50;45.70
4960;DHT22;2495;48.200;11.532;2022-08-25T14:31:53;31.40;46.00
4960;DHT22;2495;48.200;11.532;2022-08-25T14:36:54;31.40;46.10
4960;DHT22;2495;48.200;11.532;2022-08-25T14:41:55;31.30;46.70
4960;DHT22;2495;48.200;11.532;2022-08-25T14:46:57;31.30;46.80
4960;DHT22;2495;48.200;11.532;2022-08-25T14:52:15;31.20;47.00
4960;DHT22;2495;48.200;11.532;2022-08-25T14:57:20;31.10;47.90
4960;DHT22;2495;48.200;11.532;2022-08-25T15:02:22;31.50;47.40
4960;DHT22;2495;48.200;11.532;2022-08-25T15:07:23;31.70;47.30
4960;DHT22;2495;48.200;11.532;2022-08-25T15:12:43;31.50;47.10
4960;DHT22;2495;48.200;11.532;2022-08-25T15:17:44;31.00;47.50
4960;DHT22;2495;48.200;11.532;2022-08-25T15:22:45;30.70;47.70
4960;DHT22;2495;48.200;11.532;2022-08-25T15:27:47;30.50;47.90
4960;DHT22;2495;48.200;11.532;2022-08-25T15:32:48;30.30;47.90
4960;DHT22;2495;48.200;11.532;2022-08-25T15:37:50;30.30;47.90
4960;DHT22;2495;48.200;11.532;2022-08-25T15:42:51;30.30;48.20
4960;DHT22;2495;48.200;11.532;2022-08-25T15:47:52;30.40;48.90
4960;DHT22;2495;48.200;11.532;2022-08-25T15:52:54;30.60;48.40
4960;DHT22;2495;48.200;11.532;2022-08-25T15:57:55;30.40;48.10
4960;DHT22;2495;48.200;11.532;2022-08-25T16:02:56;30.30;48.20
4960;DHT22;2495;48.200;11.532;2022-08-25T16:07:58;30.20;48.20
4960;DHT22;2495;48.200;11.532;2022-08-25T16:12:59;30.10;48.10
4960;DHT22;2495;48.200;11.532;2022-08-25T16:18:00;30.10;48.20
4960;DHT22;2495;48.200;11.532;2022-08-25T16:23:01;30.00;48.10
4960;DHT22;2495;48.200;11.532;2022-08-25T16:28:03;30.00;47.90
4960;DHT22;2495;48.200;11.532;2022-08-25T16:33:05;30.00;47.90
4960;DHT22;2495;48.200;11.532;2022-08-25T16:38:05;29.90;47.30
4960;DHT22;2495;48.200;11.532;2022-08-25T16:43:07;29.90;47.70
4960;DHT22;2495;48.200;11.532;2022-08-25T16:48:08;29.70;47.80
4960;DHT22;2495;48.200;11.532;2022-08-25T16:53:09;29.60;48.30
4960;DHT22;2495;48.200;11.532;2022-08-25T16:58:29;29.40;49.20
4960;DHT22;2495;48.200;11.532;2022-08-25T17:03:30;29.30;50.00
4960;DHT22;2495;48.200;11.532;2022-08-25T17:08:33;29.20;50.90
4960;DHT22;2495;48.200;11.532;2022-08-25T17:13:33;29.20;50.70
4960;DHT22;2495;48.200;11.532;2022-08-25T17:18:34;29.10;51.00
4960;DHT22;2495;48.200;11.532;2022-08-25T17:23:35;28.90;51.20
4960;DHT22;2495;48.200;11.532;2022-08-25T17:28:37;28.70;51.60
4960;DHT22;2495;48.200;11.532;2022-08-25T17:33:38;28.60;51.80
4960;DHT22;2495;48.200;11.532;2022-08-25T17:38:40;28.50;51.90
4960;DHT22;2495;48.200;11.532;2022-08-25T17:43:41;28.30;52.00
4960;DHT22;2495;48.200;11.532;2022-08-25T17:48:42;28.30;52.40
4960;DHT22;2495;48.200;11.532;2022-08-25T17:53:44;28.20;52.60
4960;DHT22;2495;48.200;11.532;2022-08-25T17:58:45;28.10;52.70
4960;DHT22;2495;48.200;11.532;2022-08-25T18:03:46;28.10;52.90
4960;DHT22;2495;48.200;11.532;2022-08-25T18:08:48;28.00;52.90
4960;DHT22;2495;48.200;11.532;2022-08-25T18:13:49;27.90;53.50
4960;DHT22;2495;48.200;11.532;2022-08-25T18:18:53;27.80;53.30
4960;DHT22;2495;48.200;11.532;2022-08-25T18:23:54;27.70;53.20
4960;DHT22;2495;48.200;11.532;2022-08-25T18:28:55;27.70;53.20
4960;DHT22;2495;48.200;11.532;2022-08-25T18:33:58;27.60;53.40
4960;DHT22;2495;48.200;11.532;2022-08-25T18:49:33;27.30;55.20
4960;DHT22;2495;48.200;11.532;2022-08-25T18:54:35;27.20;55.20
4960;DHT22;2495;48.200;11.532;2022-08-25T18:59:36;27.10;55.50
4960;DHT22;2495;48.200;11.532;2022-08-25T19:04:37;27.10;56.20
4960;DHT22;2495;48.200;11.532;2022-08-25T19:09:39;27.00;56.60
4960;DHT22;2495;48.200;11.532;2022-08-25T19:14:40;26.90;56.50
4960;DHT22;2495;48.200;11.532;2022-08-25T19:19:41;26.90;56.90
4960;DHT22;2495;48.200;11.532;2022-08-25T19:24:43;26.80;57.10
4960;DHT22;2495;48.200;11.532;2022-08-25T19:29:44;26.80;57.40
4960;DHT22;2495;48.200;11.532;2022-08-25T19:34:46;26.80;57.40
4960;DHT22;2495;48.200;11.532;2022-08-25T19:39:49;26.70;58.00
4960;DHT22;2495;48.200;11.532;2022-08-25T19:44:48;26.70;58.20
4960;DHT22;2495;48.200;11.532;2022-08-25T19:49:50;26.60;58.50
4960;DHT22;2495;48.200;11.532;2022-08-25T19:54:51;26.50;58.80
4960;DHT22;2495;48.200;11.532;2022-08-25T19:59:52;26.50;59.10
4960;DHT22;2495;48.200;11.532;2022-08-25T20:04:55;26.40;58.90
4960;DHT22;2495;48.200;11.532;2022-08-25T20:09:56;26.40;59.20
4960;DHT22;2495;48.200;11.532;2022-08-25T20:14:57;26.30;59.30
4960;DHT22;2495;48.200;11.532;2022-08-25T20:19:59;26.30;59.50
4960;DHT22;2495;48.200;11.532;2022-08-25T20:25:01;26.30;59.60
4960;DHT22;2495;48.200;11.532;2022-08-25T20:30:02;26.30;60.20
4960;DHT22;2495;48.200;11.532;2022-08-25T20:35:07;26.20;60.60
4960;DHT22;2495;48.200;11.532;2022-08-25T20:40:11;26.10;61.10
4960;DHT22;2495;48.200;11.532;2022-08-25T20:45:15;26.10;61.30
4960;DHT22;2495;48.200;11.532;2022-08-25T20:50:16;26.00;61.40
4960;DHT22;2495;48.200;11.532;2022-08-25T20:55:20;26.00;61.80
4960;DHT22;2495;48.200;11.532;2022-08-25T21:00:24;26.00;62.00
4960;DHT22;2495;48.200;11.532;2022-08-25T21:05:25;26.00;62.30
4960;DHT22;2495;48.200;11.532;2022-08-25T21:10:27;25.90;62.30
4960;DHT22;2495;48.200;11.532;2022-08-25T21:15:28;25.90;63.10
4960;DHT22;2495;48.200;11.532;2022-08-25T21:20:30;25.80;62.70
4960;DHT22;2495;48.200;11.532;2022-08-25T21:25:36;25.80;63.00
4960;DHT22;2495;48.200;11.532;2022-08-25T21:30:32;25.70;63.30
4960;DHT22;2495;48.200;11.532;2022-08-25T21:35:37;25.80;64.20
4960;DHT22;2495;48.200;11.532;2022-08-25T21:40:35;26.00;64.80
4960;DHT22;2495;48.200;11.532;2022-08-25T21:45:37;26.20;65.30
4960;DHT22;2495;48.200;11.532;2022-08-25T21:50:38;26.20;64.10
4960;DHT22;2495;48.200;11.532;2022-08-25T21:55:40;26.00;63.90
4960;DHT22;2495;48.200;11.532;2022-08-25T22:00:40;25.80;63.80
4960;DHT22;2495;48.200;11.532;2022-08-25T22:05:44;25.60;64.10
4960;DHT22;2495;48.200;11.532;2022-08-25T22:10:48;25.50;64.30
4960;DHT22;2495;48.200;11.532;2022-08-25T22:15:47;25.40;64.70
4960;DHT22;2495;48.200;11.532;2022-08-25T22:20:49;25.30;65.20
4960;DHT22;2495;48.200;11.532;2022-08-25T22:25:55;25.20;65.50
4960;DHT22;2495;48.200;11.532;2022-08-25T22:30:59;25.20;65.60
4960;DHT22;2495;48.200;11.532;2022-08-25T22:35:58;25.10;65.80
4960;DHT22;2495;48.200;11.532;2022-08-25T22:41:02;25.00;66.10
4960;DHT22;2495;48.200;11.532;2022-08-25T22:46:04;24.90;66.20
4960;DHT22;2495;48.200;11.532;2022-08-25T22:51:06;24.90;66.90
4960;DHT22;2495;48.200;11.532;2022-08-25T22:56:06;24.80;67.30
4960;DHT22;2495;48.200;11.532;2022-08-25T23:01:14;24.70;67.60
4960;DHT22;2495;48.200;11.532;2022-08-25T23:06:17;24.70;68.10
4960;DHT22;2495;48.200;11.532;2022-08-25T23:11:16;24.60;68.20
4960;DHT22;2495;48.200;11.532;2022-08-25T23:16:17;24.60;68.40
4960;DHT22;2495;48.200;11.532;2022-08-25T23:21:19;24.50;68.60
4960;DHT22;2495;48.200;11.532;2022-08-25T23:26:39;24.40;68.90
4960;DHT22;2495;48.200;11.532;2022-08-25T23:31:40;24.30;69.30
4960;DHT22;2495;48.200;11.532;2022-08-25T23:36:41;24.20;69.50
4960;DHT22;2495;48.200;11.532;2022-08-25T23:41:42;24.10;69.90
4960;DHT22;2495;48.200;11.532;2022-08-25T23:46:44;24.00;70.10
4960;DHT22;2495;48.200;11.532;2022-08-25T23:51:45;24.00;70.40
4960;DHT22;2495;48.200;11.532;2022-08-25T23:56:46;23.90;70.60
